Maldives Meteorological Service

METAR

Station
VRMM
METAR VRMM 290000Z 25006KT 9999 SCT018TCU BKN270 28/25 Q1009 NOSIG=
VRMH
METAR VRMH 290000Z 28005KT 9999 FEW018 SCT270 27/25 Q1009=
VRMK
METAR VRMK 290000Z VRB01KT 9000 -SHRA SCT018TCU BKN270 27/24 Q1010=
VRMT
METAR VRMT 290000Z VRB01KT 9999 FEW018TCU BKN260 26/25 Q1009=
VRMG
METAR VRMG 290000Z 20005KT 9999 FEW018TCU BKN260 28/24 Q1009 NOSIG=
Last Updated : 2020-09-29 04:59:37

SPECI

Station
VRMM
VRMH
VRMK
VRMT
VRMG
Last Updated : 2020-09-29 04:59:37